Amsden, Ohio
Current Conditions -  °F | °C
As of 9:53 AM on Friday 24 Oct 2014 (Local Time) from KFDY Reporting Station
Haze Haze  
Wind Chill:   Ceiling: Unl
Heat Index:   Visibility: 6mi
Dew Point:   Wind: 3mph
Humidity: 83%   Direction: 180°S
Pressure: 30.1"   Gusts: NA
Location:  41.22°N, 83.33°W
Report Text: KFDY 241353Z AUTO 18003KT 6SM HZ CLR 09/06 A3010 RMK AO2 SLP193 T00890061
Loading
Personal Weather Stations






























Interactive Weather Map
Tropical Storm Tracking
New forecast layout! Learn more

10-Day Weather Forecast

Advertisements
Track Severe Weather on mobile